HLI weather

Hollister Municipal Airport
Hollister, California, United States

Public forecast

Using degrees Fahrenheit for public forecast. Weather courtesy of forecast.io.

Closest aviation weather report (METAR) to Hollister Municipal Airport

Closest report is San Martin Airport, 14.4 nm (26.7 km) NW. Retrieved UTC (0 seconds ago):

Closest aviation forecast (TAF) to Hollister Municipal Airport

Closest forecast is Salinas Municipal Airport, 16.7 nm (31.0 km) SW. Retrieved 2020/02/19 06:24 UTC (17 minutes ago):

TAF KSNS 190523Z 1906/2006 29008KT P6SM FEW010 SCT200 FM190900 14005KT P6SM FEW010 FEW200 FM191400 15007KT P6SM FEW010 SCT200 FM192100 30012KT P6SM SCT200 FM200300 29008KT P6SM SCT200